createdAt,value
2018-09-13T00:00:30.426Z,100958.81
2018-09-13T00:03:01.808Z,100954.39
2018-09-13T00:05:33.313Z,100954.72
2018-09-13T00:08:05.321Z,100947.87
2018-09-13T00:10:37.308Z,100949.45
2018-09-13T00:13:15.222Z,100953.03
2018-09-13T00:15:46.777Z,100952.68
2018-09-13T00:18:18.417Z,100953.03
2018-09-13T00:20:49.867Z,100943.97
2018-09-13T00:23:21.307Z,100946.89
2018-09-13T00:25:52.751Z,100947.20
2018-09-13T00:28:24.324Z,100949.09
2018-09-13T00:30:55.760Z,100942.78
2018-09-13T00:33:27.301Z,100944.16
2018-09-13T00:35:58.802Z,100943.48
2018-09-13T00:38:30.218Z,100944.54
2018-09-13T00:44:01.596Z,100939.91
2018-09-13T00:46:32.727Z,100934.26
2018-09-13T00:49:03.878Z,100939.73
2018-09-13T00:51:34.530Z,100935.94
2018-09-13T00:54:05.633Z,100932.16
2018-09-13T00:56:36.654Z,100930.15
2018-09-13T00:59:07.622Z,100930.15
2018-09-13T01:01:38.752Z,100933.24
2018-09-13T01:04:09.724Z,100914.48
2018-09-13T01:06:40.707Z,100924.68
2018-09-13T01:09:11.925Z,100924.86
2018-09-13T01:11:42.885Z,100924.54
2018-09-13T01:16:55.338Z,100906.75
2018-09-13T01:19:26.655Z,100919.91
2018-09-13T01:21:57.708Z,100913.91
2018-09-13T01:24:28.691Z,100907.20
2018-09-13T01:26:59.691Z,100902.96
2018-09-13T01:29:30.650Z,100898.33
2018-09-13T01:32:01.704Z,100894.23
2018-09-13T01:34:32.704Z,100889.95
2018-09-13T01:37:03.687Z,100890.65
2018-09-13T01:39:34.736Z,100887.39
2018-09-13T01:42:05.825Z,100891.17
2018-09-13T01:44:36.802Z,100891.48
2018-09-13T01:47:08.395Z,100892.06
2018-09-13T01:49:39.796Z,100897.80
2018-09-13T01:52:11.021Z,100892.33
2018-09-13T01:54:42.455Z,100890.79
2018-09-13T01:57:14.011Z,100888.89
2018-09-13T01:59:45.521Z,100880.55
2018-09-13T02:02:17.413Z,100883.49
2018-09-13T02:04:48.879Z,100880.55
2018-09-13T02:07:19.638Z,100881.91
2018-09-13T02:09:51.199Z,100890.13
2018-09-13T02:12:22.720Z,100900.75
2018-09-13T02:14:54.455Z,100896.44
2018-09-13T02:17:26.207Z,100910.64
2018-09-13T02:19:57.863Z,100908.30
2018-09-13T02:22:29.396Z,100908.26
2018-09-13T02:25:00.872Z,100905.00
2018-09-13T02:27:31.564Z,100900.05
2018-09-13T02:30:03.062Z,100902.78
2018-09-13T02:32:34.757Z,100901.03
2018-09-13T02:35:06.416Z,100892.16
2018-09-13T02:37:37.898Z,100889.81
2018-09-13T02:40:08.751Z,100885.35
2018-09-13T02:42:40.305Z,100882.13
2018-09-13T02:45:11.761Z,100884.33
2018-09-13T02:47:43.427Z,100886.09
2018-09-13T02:50:14.896Z,100890.20
2018-09-13T02:52:45.594Z,100879.88
2018-09-13T02:55:16.992Z,100881.98
2018-09-13T02:57:51.575Z,100880.62
2018-09-13T03:00:23.218Z,100876.70
2018-09-13T03:02:54.678Z,100877.01
2018-09-13T03:05:26.191Z,100878.91
2018-09-13T03:07:57.727Z,100873.64
2018-09-13T03:10:28.795Z,100878.91
2018-09-13T03:12:59.886Z,100877.36
2018-09-13T03:15:31.414Z,100877.14
2018-09-13T03:18:02.803Z,100876.44
2018-09-13T03:20:34.341Z,100873.91
2018-09-13T03:23:05.865Z,100872.86
2018-09-13T03:25:36.671Z,100867.20
2018-09-13T03:28:09.695Z,100867.70
2018-09-13T03:30:41.230Z,100863.67
2018-09-13T03:33:13.637Z,100862.83
2018-09-13T03:35:45.243Z,100849.98
2018-09-13T03:38:16.801Z,100849.78
2018-09-13T03:40:48.408Z,100844.83
2018-09-13T03:43:19.796Z,100847.44
2018-09-13T03:45:51.317Z,100846.91
2018-09-13T03:48:22.774Z,100848.62
2018-09-13T03:50:53.798Z,100847.26
2018-09-13T03:53:25.422Z,100850.70
2018-09-13T03:55:56.718Z,100846.91
2018-09-13T03:58:28.253Z,100838.20
2018-09-13T04:00:59.800Z,100838.84
2018-09-13T04:03:31.390Z,100825.76
2018-09-13T04:06:02.853Z,100832.20
2018-09-13T04:08:34.401Z,100834.09
2018-09-13T04:11:05.805Z,100837.02
2018-09-13T04:13:37.686Z,100837.93
2018-09-13T04:16:09.351Z,100848.08
2018-09-13T04:18:40.757Z,100842.16
2018-09-13T04:21:12.540Z,100843.13
2018-09-13T04:23:44.008Z,100834.65
2018-09-13T04:26:15.569Z,100833.81
2018-09-13T04:28:46.988Z,100834.97
2018-09-13T04:31:18.563Z,100839.88
2018-09-13T04:33:50.687Z,100837.66
2018-09-13T04:36:22.222Z,100832.94
2018-09-13T04:38:53.673Z,100838.23
2018-09-13T04:41:24.969Z,100844.54
2018-09-13T04:43:56.515Z,100846.96
2018-09-13T04:46:27.874Z,100838.75
2018-09-13T04:48:58.614Z,100840.13
2018-09-13T04:51:30.202Z,100842.19
2018-09-13T04:54:01.762Z,100845.98
2018-09-13T04:56:33.563Z,100842.23
2018-09-13T04:59:05.200Z,100858.29
2018-09-13T05:01:37.014Z,100850.09
2018-09-13T05:04:08.670Z,100845.77
2018-09-13T05:06:40.289Z,100841.49
2018-09-13T05:09:14.452Z,100846.26
2018-09-13T05:11:46.009Z,100848.26
2018-09-13T05:14:17.625Z,100851.52
2018-09-13T05:16:49.209Z,100862.67
2018-09-13T05:19:20.743Z,100855.83
2018-09-13T05:21:52.333Z,100852.57
2018-09-13T05:24:23.845Z,100853.41
2018-09-13T05:26:55.669Z,100858.56
2018-09-13T05:29:27.227Z,100859.00
2018-09-13T05:31:58.485Z,100863.09
2018-09-13T05:34:29.663Z,100861.20
2018-09-13T05:37:00.654Z,100860.68
2018-09-13T05:39:31.682Z,100861.73
2018-09-13T05:42:02.851Z,100861.06
2018-09-13T05:44:33.546Z,100862.12
2018-09-13T05:47:04.977Z,100853.25
2018-09-13T05:49:36.639Z,100857.36
2018-09-13T05:52:08.210Z,100863.84
2018-09-13T05:54:39.778Z,100860.75
2018-09-13T05:57:11.341Z,100853.70
2018-09-13T05:59:42.795Z,100853.70
2018-09-13T06:02:13.913Z,100853.25
2018-09-13T06:04:44.575Z,100854.94
2018-09-13T06:07:16.225Z,100852.69
2018-09-13T06:09:47.885Z,100849.73
2018-09-13T06:12:18.541Z,100850.27
2018-09-13T06:14:49.994Z,100846.30
2018-09-13T06:17:21.549Z,100841.88
2018-09-13T06:19:53.073Z,100841.53
2018-09-13T06:22:23.576Z,100843.03
2018-09-13T06:24:54.978Z,100849.70
2018-09-13T06:27:26.725Z,100847.34
2018-09-13T06:29:58.382Z,100840.23
2018-09-13T06:33:00.615Z,100849.95
2018-09-13T06:35:31.728Z,100850.30
2018-09-13T06:38:02.809Z,100860.54
2018-09-13T06:40:33.629Z,100858.72
2018-09-13T06:43:04.448Z,100856.51
2018-09-13T06:45:35.629Z,100856.51
2018-09-13T06:48:07.529Z,100857.66
2018-09-13T06:50:38.690Z,100847.78
2018-09-13T06:53:10.206Z,100845.88
2018-09-13T06:55:48.671Z,100843.33
2018-09-13T06:58:20.298Z,100846.23
2018-09-13T07:00:51.805Z,100846.20
2018-09-13T07:03:23.306Z,100849.14
2018-09-13T07:05:54.869Z,100847.08
2018-09-13T07:08:25.596Z,100842.62
2018-09-13T07:10:57.247Z,100842.97
2018-09-13T07:13:28.754Z,100841.92
2018-09-13T07:16:00.193Z,100841.00
2018-09-13T07:18:31.655Z,100847.92
2018-09-13T07:21:03.200Z,100854.94
2018-09-13T07:23:34.755Z,100851.04
2018-09-13T07:26:06.297Z,100839.89
2018-09-13T07:28:37.757Z,100852.34
2018-09-13T07:31:09.299Z,100844.34
2018-09-13T07:33:41.223Z,100849.42
2018-09-13T07:36:12.751Z,100841.22
2018-09-13T07:38:44.415Z,100843.42
2018-09-13T07:41:15.632Z,100835.04
2018-09-13T07:43:46.655Z,100828.83
2018-09-13T07:46:17.698Z,100823.05
2018-09-13T07:48:48.709Z,100822.66
2018-09-13T07:51:20.300Z,100824.28
2018-09-13T07:53:51.785Z,100821.67
2018-09-13T07:56:23.269Z,100818.41
2018-09-13T07:58:54.579Z,100817.97
2018-09-13T08:01:25.902Z,100817.89
2018-09-13T08:03:56.616Z,100817.39
2018-09-13T08:06:28.216Z,100818.94
2018-09-13T08:08:59.746Z,100817.19
2018-09-13T08:11:31.367Z,100823.63
2018-09-13T08:14:02.813Z,100824.41
2018-09-13T08:16:34.221Z,100810.73
2018-09-13T08:19:05.748Z,100826.05
2018-09-13T08:21:37.413Z,100834.27
2018-09-13T08:24:08.759Z,100839.34
2018-09-13T08:26:40.205Z,100836.08
2018-09-13T08:29:11.765Z,100837.80
2018-09-13T08:31:43.549Z,100844.16
2018-09-13T08:34:15.207Z,100836.69
2018-09-13T08:36:46.764Z,100839.34
2018-09-13T08:39:18.019Z,100845.66
2018-09-13T08:41:49.245Z,100837.00
2018-09-13T08:44:20.684Z,100829.45
2018-09-13T08:46:52.200Z,100830.11
2018-09-13T08:49:23.652Z,100832.11
2018-09-13T08:51:55.270Z,100831.13
2018-09-13T08:54:26.749Z,100844.29
2018-09-13T08:56:58.199Z,100849.76
2018-09-13T08:59:29.979Z,100852.36
2018-09-13T09:02:01.622Z,100859.27
2018-09-13T09:04:33.311Z,100856.53
2018-09-13T09:07:04.789Z,100860.91
2018-09-13T09:09:36.317Z,100853.02
2018-09-13T09:12:07.823Z,100849.38
2018-09-13T09:14:39.448Z,100852.24
2018-09-13T09:17:10.734Z,100846.91
2018-09-13T09:19:42.215Z,100835.47
2018-09-13T09:22:13.700Z,100842.94
2018-09-13T09:24:45.205Z,100846.02
2018-09-13T09:27:16.595Z,100843.60
2018-09-13T09:29:47.937Z,100844.30
2018-09-13T09:32:18.649Z,100847.96
2018-09-13T09:34:50.265Z,100841.96
2018-09-13T09:37:21.849Z,100841.25
2018-09-13T09:39:53.421Z,100830.70
2018-09-13T09:42:24.841Z,100842.94
2018-09-13T09:44:56.322Z,100849.47
2018-09-13T09:47:34.639Z,100849.86
2018-09-13T09:50:06.669Z,100841.96
2018-09-13T09:52:38.197Z,100839.23
2018-09-13T09:55:09.713Z,100838.56
2018-09-13T09:57:42.364Z,100824.69
2018-09-13T10:00:13.848Z,100838.56
2018-09-13T10:02:45.473Z,100841.13
2018-09-13T10:05:16.776Z,100845.89
2018-09-13T10:07:48.432Z,100843.67
2018-09-13T10:10:19.977Z,100840.73
2018-09-13T10:12:51.593Z,100844.30
2018-09-13T10:15:28.337Z,100834.80
2018-09-13T10:18:04.869Z,100835.52
2018-09-13T10:20:40.593Z,100820.59
2018-09-13T10:23:17.311Z,100811.41
2018-09-13T10:25:53.873Z,100805.81
2018-09-13T10:28:29.616Z,100812.84
2018-09-13T10:31:06.219Z,100814.20
2018-09-13T10:33:42.764Z,100820.69
2018-09-13T10:36:19.239Z,100821.53
2018-09-13T10:38:56.048Z,100812.27
2018-09-13T10:41:32.670Z,100822.89
2018-09-13T10:44:09.224Z,100808.11
2018-09-13T10:46:41.225Z,100802.11
2018-09-13T10:49:17.705Z,100798.98
2018-09-13T10:51:54.470Z,100798.27
2018-09-13T10:54:31.350Z,100801.53
2018-09-13T10:58:07.758Z,100807.53
2018-09-13T11:00:39.428Z,100808.91
2018-09-13T11:03:11.320Z,100807.14
2018-09-13T11:05:42.821Z,100808.38
2018-09-13T11:08:14.313Z,100813.06
2018-09-13T11:10:45.892Z,100817.48
2018-09-13T11:13:20.667Z,100811.51
2018-09-13T11:15:52.221Z,100817.48
2018-09-13T11:18:23.734Z,100819.33
2018-09-13T11:20:55.313Z,100818.67
2018-09-13T11:23:26.809Z,100807.06
2018-09-13T11:25:58.659Z,100807.41
2018-09-13T11:28:30.218Z,100802.51
2018-09-13T11:31:04.744Z,100805.06
2018-09-13T11:33:36.829Z,100790.64
2018-09-13T11:36:08.468Z,100802.25
2018-09-13T11:38:39.872Z,100805.64
2018-09-13T11:41:10.568Z,100797.03
2018-09-13T11:43:41.992Z,100801.66
2018-09-13T11:46:13.683Z,100807.02
2018-09-13T11:48:45.345Z,100811.95
2018-09-13T11:51:16.874Z,100796.77
2018-09-13T11:53:47.586Z,100797.83
2018-09-13T11:56:19.237Z,100788.24
2018-09-13T11:58:50.720Z,100800.34
2018-09-13T12:01:22.280Z,100811.30
2018-09-13T12:03:53.830Z,100822.06
2018-09-13T12:06:25.638Z,100819.86
2018-09-13T12:08:57.205Z,100813.27
2018-09-13T12:11:28.715Z,100815.62
2018-09-13T12:14:00.343Z,100810.98
2018-09-13T12:16:31.849Z,100797.83
2018-09-13T12:19:03.312Z,100791.48
2018-09-13T12:21:35.756Z,100791.03
2018-09-13T12:24:07.410Z,100780.16
2018-09-13T12:26:38.974Z,100789.40
2018-09-13T12:29:10.518Z,100782.64
2018-09-13T12:31:42.228Z,100771.47
2018-09-13T12:34:13.989Z,100766.27
2018-09-13T12:36:45.576Z,100767.84
2018-09-13T12:39:17.002Z,100772.22
2018-09-13T12:41:48.749Z,100772.84
2018-09-13T12:44:19.786Z,100782.24
2018-09-13T12:46:50.785Z,100791.61
2018-09-13T12:49:22.705Z,100799.51
2018-09-13T12:51:54.329Z,100798.00
2018-09-13T12:54:25.784Z,100801.19
2018-09-13T12:56:57.444Z,100789.53
2018-09-13T12:59:28.747Z,100804.67
2018-09-13T13:02:00.318Z,100807.45
2018-09-13T13:04:31.801Z,100801.59
2018-09-13T13:07:03.421Z,100783.80
2018-09-13T13:09:34.760Z,100765.38
2018-09-13T13:12:06.436Z,100758.72
2018-09-13T13:14:37.870Z,100774.34
2018-09-13T13:17:09.435Z,100775.84
2018-09-13T13:19:40.886Z,100776.55
2018-09-13T13:22:11.579Z,100769.27
2018-09-13T13:24:43.000Z,100768.55
2018-09-13T13:27:14.790Z,100772.97
2018-09-13T13:29:46.214Z,100778.19
2018-09-13T13:32:17.753Z,100787.27
2018-09-13T13:34:49.415Z,100797.56
2018-09-13T13:37:20.841Z,100789.48
2018-09-13T13:39:52.452Z,100787.06
2018-09-13T13:42:23.810Z,100781.27
2018-09-13T13:44:55.390Z,100789.80
2018-09-13T13:47:27.246Z,100800.22
2018-09-13T13:49:58.650Z,100809.92
2018-09-13T13:52:30.214Z,100808.24
2018-09-13T13:55:01.720Z,100804.45
2018-09-13T13:57:33.225Z,100804.32
2018-09-13T14:00:04.724Z,100802.81
2018-09-13T14:02:36.976Z,100800.74
2018-09-13T14:05:08.683Z,100792.53
2018-09-13T14:07:40.529Z,100778.53
2018-09-13T14:10:11.923Z,100767.24
2018-09-13T14:12:43.445Z,100774.80
2018-09-13T14:15:14.839Z,100777.03
2018-09-13T14:17:46.334Z,100780.66
2018-09-13T14:20:17.735Z,100774.22
2018-09-13T14:22:49.323Z,100777.08
2018-09-13T14:25:20.703Z,100775.89
2018-09-13T14:27:52.315Z,100775.89
2018-09-13T14:30:23.795Z,100773.38
2018-09-13T14:32:55.320Z,100778.00
2018-09-13T14:35:26.864Z,100774.92
2018-09-13T14:37:58.472Z,100781.84
2018-09-13T14:40:29.847Z,100787.09
2018-09-13T14:43:01.293Z,100783.34
2018-09-13T14:45:32.776Z,100781.62
2018-09-13T14:48:04.896Z,100767.89
2018-09-13T14:50:35.577Z,100765.81
2018-09-13T14:53:07.553Z,100764.69
2018-09-13T14:55:39.425Z,100753.61
2018-09-13T14:58:10.771Z,100754.97
2018-09-13T15:00:41.783Z,100760.66
2018-09-13T15:03:12.833Z,100752.63
2018-09-13T15:05:44.214Z,100753.03
2018-09-13T15:08:15.745Z,100751.80
2018-09-13T15:10:47.312Z,100754.92
2018-09-13T15:13:18.767Z,100753.95
2018-09-13T15:15:50.299Z,100749.98
2018-09-13T15:18:21.819Z,100746.67
2018-09-13T15:20:53.309Z,100742.43
2018-09-13T15:23:25.017Z,100737.94
2018-09-13T15:25:56.510Z,100732.33
2018-09-13T15:28:27.994Z,100727.56
2018-09-13T15:30:59.521Z,100727.17
2018-09-13T15:33:31.021Z,100722.05
2018-09-13T15:36:02.726Z,100728.22
2018-09-13T15:38:34.698Z,100736.56
2018-09-13T15:41:06.267Z,100730.95
2018-09-13T15:43:37.764Z,100745.30
2018-09-13T15:46:09.422Z,100752.14
2018-09-13T15:48:40.977Z,100758.50
2018-09-13T15:51:12.545Z,100762.42
2018-09-13T15:53:44.007Z,100769.05
2018-09-13T15:56:15.604Z,100766.70
2018-09-13T15:58:47.309Z,100761.89
2018-09-13T16:01:18.752Z,100763.79
2018-09-13T16:03:50.307Z,100758.50
2018-09-13T16:06:21.829Z,100759.02
2018-09-13T16:08:53.478Z,100755.98
2018-09-13T16:11:24.909Z,100750.55
2018-09-13T16:13:55.578Z,100746.77
2018-09-13T16:16:26.908Z,100745.21
2018-09-13T16:18:57.551Z,100740.80
2018-09-13T16:21:28.983Z,100741.02
2018-09-13T16:24:00.685Z,100740.31
2018-09-13T16:26:32.223Z,100737.93
2018-09-13T16:29:03.697Z,100739.42
2018-09-13T16:31:35.223Z,100739.42
2018-09-13T16:34:06.769Z,100740.92
2018-09-13T16:36:40.012Z,100742.48
2018-09-13T16:39:27.220Z,100740.45
2018-09-13T16:42:03.833Z,100749.71
2018-09-13T16:44:40.383Z,100750.23
2018-09-13T16:48:16.497Z,100756.34
2018-09-13T16:50:47.908Z,100748.80
2018-09-13T16:53:18.584Z,100748.60
2018-09-13T16:55:50.199Z,100748.52
2018-09-13T16:58:21.708Z,100748.13
2018-09-13T17:00:53.212Z,100738.95
2018-09-13T17:03:24.713Z,100739.16
2018-09-13T17:05:56.313Z,100743.89
2018-09-13T17:08:27.748Z,100744.03
2018-09-13T17:10:59.335Z,100737.31
2018-09-13T17:13:30.799Z,100746.63
2018-09-13T17:16:02.222Z,100750.03
2018-09-13T17:18:33.700Z,100752.97
2018-09-13T17:21:05.391Z,100755.70
2018-09-13T17:23:36.778Z,100754.91
2018-09-13T17:26:08.328Z,100763.44
2018-09-13T17:28:40.024Z,100764.23
2018-09-13T17:31:11.716Z,100767.53
2018-09-13T17:33:43.532Z,100766.83
2018-09-13T17:36:14.821Z,100763.04
2018-09-13T17:38:46.239Z,100768.20
2018-09-13T17:41:17.806Z,100767.36
2018-09-13T17:43:49.689Z,100749.84
2018-09-13T17:46:21.215Z,100758.17
2018-09-13T17:48:52.662Z,100753.55
2018-09-13T17:51:24.216Z,100760.56
2018-09-13T17:53:55.716Z,100762.28
2018-09-13T17:56:27.304Z,100760.17
2018-09-13T17:58:58.760Z,100771.85
2018-09-13T18:01:30.325Z,100759.67
2018-09-13T18:04:01.756Z,100767.67
2018-09-13T18:06:33.318Z,100753.56
2018-09-13T18:09:06.993Z,100767.75
2018-09-13T18:11:38.675Z,100773.53
2018-09-13T18:14:10.210Z,100773.98
2018-09-13T18:16:41.720Z,100779.14
2018-09-13T18:19:12.982Z,100778.61
2018-09-13T18:21:44.527Z,100776.27
2018-09-13T18:24:15.892Z,100778.69
2018-09-13T18:26:47.042Z,100778.17
2018-09-13T18:29:18.689Z,100778.34
2018-09-13T18:31:50.204Z,100784.17
2018-09-13T18:34:21.757Z,100786.77
2018-09-13T18:36:53.303Z,100787.30
2018-09-13T18:39:24.757Z,100794.75
2018-09-13T18:41:55.850Z,100785.39
2018-09-13T18:44:26.808Z,100792.02
2018-09-13T18:46:58.209Z,100788.97
2018-09-13T18:49:29.680Z,100789.64
2018-09-13T18:52:01.320Z,100794.44
2018-09-13T18:54:32.777Z,100793.74
2018-09-13T18:57:04.570Z,100788.31
2018-09-13T18:59:35.969Z,100796.03
2018-09-13T19:02:06.571Z,100802.34
2018-09-13T19:04:37.961Z,100801.42
2018-09-13T19:07:09.539Z,100797.84
2018-09-13T19:09:41.212Z,100797.32
2018-09-13T19:12:12.772Z,100801.63
2018-09-13T19:14:44.681Z,100799.08
2018-09-13T19:17:16.355Z,100802.34
2018-09-13T19:19:47.767Z,100800.30
2018-09-13T19:22:19.356Z,100796.52
2018-09-13T19:24:50.982Z,100804.94
2018-09-13T19:27:22.486Z,100801.36
2018-09-13T19:29:53.847Z,100801.67
2018-09-13T19:32:25.383Z,100794.70
2018-09-13T19:34:56.766Z,100799.02
2018-09-13T19:37:28.361Z,100799.86
2018-09-13T19:39:59.775Z,100801.02
2018-09-13T19:42:30.840Z,100805.39
2018-09-13T19:45:02.452Z,100811.70
2018-09-13T19:47:33.861Z,100816.33
2018-09-13T19:50:04.602Z,100809.87
2018-09-13T19:52:36.215Z,100822.89
2018-09-13T19:55:08.418Z,100815.88
2018-09-13T19:57:39.883Z,100810.27
2018-09-13T20:00:12.835Z,100816.72
2018-09-13T20:02:43.557Z,100817.03
2018-09-13T20:05:14.828Z,100815.03
2018-09-13T20:07:46.394Z,100815.66
2018-09-13T20:10:17.871Z,100818.22
2018-09-13T20:12:49.683Z,100813.28
2018-09-13T20:15:21.204Z,100808.12
2018-09-13T20:17:52.744Z,100810.02
2018-09-13T20:20:24.379Z,100800.73
2018-09-13T20:22:55.834Z,100812.30
2018-09-13T20:25:27.427Z,100812.30
2018-09-13T20:27:58.857Z,100814.89
2018-09-13T20:30:29.535Z,100823.80
2018-09-13T20:33:01.006Z,100819.52
2018-09-13T20:35:32.579Z,100816.79
2018-09-13T20:38:04.227Z,100822.05
2018-09-13T20:40:35.811Z,100814.20
2018-09-13T20:43:07.823Z,100823.77
2018-09-13T20:45:39.523Z,100827.38
2018-09-13T20:48:11.308Z,100829.73
2018-09-13T20:50:42.808Z,100831.09
2018-09-13T20:53:14.224Z,100829.09
2018-09-13T20:55:45.748Z,100835.06
2018-09-13T20:58:17.634Z,100832.53
2018-09-13T21:00:49.406Z,100834.60
2018-09-13T21:03:20.660Z,100828.61
2018-09-13T21:05:52.207Z,100830.33
2018-09-13T21:08:23.897Z,100844.49
2018-09-13T21:10:54.587Z,100836.28
2018-09-13T21:13:26.207Z,100843.79
2018-09-13T21:15:57.723Z,100841.44
2018-09-13T21:18:28.868Z,100841.76
2018-09-13T21:20:59.336Z,100842.84
2018-09-13T21:23:30.864Z,100837.16
2018-09-13T21:26:01.609Z,100836.67
2018-09-13T21:28:33.498Z,100837.37
2018-09-13T21:31:05.218Z,100840.98
2018-09-13T21:33:36.768Z,100838.04
2018-09-13T21:36:08.431Z,100840.77
2018-09-13T21:38:39.873Z,100851.01
2018-09-13T21:41:10.627Z,100837.86
2018-09-13T21:43:42.218Z,100838.53
2018-09-13T21:46:13.793Z,100838.88
2018-09-13T21:48:45.307Z,100829.17
2018-09-13T21:51:16.838Z,100827.31
2018-09-13T21:53:48.391Z,100834.78
2018-09-13T21:56:19.914Z,100836.67
2018-09-13T21:58:51.730Z,100842.84
2018-09-13T22:01:23.503Z,100845.27
2018-09-13T22:03:54.889Z,100843.75
2018-09-13T22:06:25.613Z,100843.37
2018-09-13T22:08:57.590Z,100849.05
2018-09-13T22:11:29.237Z,100843.23
2018-09-13T22:14:00.774Z,100841.48
2018-09-13T22:16:32.600Z,100825.14
2018-09-13T22:19:04.206Z,100841.44
2018-09-13T22:21:35.935Z,100838.56
2018-09-13T22:24:07.601Z,100829.91
2018-09-13T22:26:39.436Z,100843.05
2018-09-13T22:29:10.950Z,100840.84
2018-09-13T22:31:42.426Z,100848.23
2018-09-13T22:34:14.211Z,100848.70
2018-09-13T22:36:45.725Z,100847.85
2018-09-13T22:39:18.308Z,100843.93
2018-09-13T22:41:49.801Z,100851.81
2018-09-13T22:44:21.143Z,100845.96
2018-09-13T22:46:52.738Z,100846.63
2018-09-13T22:49:24.460Z,100851.11
2018-09-13T22:51:55.904Z,100849.61
2018-09-13T22:54:26.609Z,100845.82
2018-09-13T22:56:58.050Z,100851.15
2018-09-13T22:59:29.756Z,100855.39
2018-09-13T23:02:01.414Z,100849.25
2018-09-13T23:04:32.909Z,100856.62
2018-09-13T23:07:03.651Z,100861.70
2018-09-13T23:09:35.408Z,100852.34
2018-09-13T23:12:07.305Z,100841.92
2018-09-13T23:14:39.205Z,100842.39
2018-09-13T23:17:10.769Z,100847.16
2018-09-13T23:19:42.301Z,100849.54
2018-09-13T23:22:14.329Z,100847.02
2018-09-13T23:24:45.851Z,100849.61
2018-09-13T23:27:18.200Z,100852.20
2018-09-13T23:29:49.751Z,100850.91
2018-09-13T23:32:21.419Z,100851.81
2018-09-13T23:34:52.982Z,100849.78
2018-09-13T23:37:24.541Z,100850.45
2018-09-13T23:39:56.146Z,100847.54
2018-09-13T23:42:27.747Z,100847.40
2018-09-13T23:44:59.378Z,100842.11
2018-09-13T23:47:30.999Z,100845.30
2018-09-13T23:50:02.647Z,100848.03
2018-09-13T23:52:37.400Z,100850.45
2018-09-13T23:55:08.997Z,100854.02
2018-09-13T23:57:40.516Z,100856.23
